createdAt,value
2023-05-13T00:00:44.290Z,5.00
2023-05-13T00:01:44.282Z,5.60
2023-05-13T00:02:44.390Z,5.30
2023-05-13T00:03:44.380Z,5.20
2023-05-13T00:04:44.329Z,5.20
2023-05-13T00:05:44.256Z,5.30
2023-05-13T00:06:44.227Z,4.60
2023-05-13T00:07:44.251Z,4.80
2023-05-13T00:08:44.226Z,5.30
2023-05-13T00:09:44.211Z,5.10
2023-05-13T00:10:44.181Z,4.60
2023-05-13T00:11:44.178Z,4.90
2023-05-13T00:12:44.164Z,4.90
2023-05-13T00:13:44.172Z,5.10
2023-05-13T00:14:44.145Z,4.70
2023-05-13T00:15:44.125Z,5.30
2023-05-13T00:16:44.273Z,4.60
2023-05-13T00:17:44.152Z,5.00
2023-05-13T00:18:44.149Z,4.90
2023-05-13T00:19:44.100Z,4.40
2023-05-13T00:20:44.081Z,4.50
2023-05-13T00:21:44.061Z,5.00
2023-05-13T00:22:44.052Z,4.50
2023-05-13T00:23:44.071Z,5.20
2023-05-13T00:24:44.025Z,4.90
2023-05-13T00:25:44.028Z,4.50
2023-05-13T00:26:44.014Z,4.90
2023-05-13T00:27:44.011Z,4.40
2023-05-13T00:28:44.060Z,4.40
2023-05-13T00:29:43.984Z,4.60
2023-05-13T00:30:43.958Z,4.40
2023-05-13T00:31:43.980Z,4.80
2023-05-13T00:32:43.979Z,4.70
2023-05-13T00:33:43.933Z,4.90
2023-05-13T00:34:43.976Z,4.70
2023-05-13T00:35:43.912Z,4.50
2023-05-13T00:36:43.894Z,4.60
2023-05-13T00:37:43.902Z,4.70
2023-05-13T00:38:43.879Z,3.80
2023-05-13T00:39:43.860Z,4.80
2023-05-13T00:40:43.845Z,4.00
2023-05-13T00:41:43.852Z,4.40
2023-05-13T00:42:43.868Z,4.80
2023-05-13T00:43:43.827Z,4.40
2023-05-13T00:44:43.808Z,4.70
2023-05-13T00:45:43.835Z,4.00
2023-05-13T00:46:43.818Z,4.10
2023-05-13T00:47:43.834Z,4.50
2023-05-13T00:48:43.773Z,4.40
2023-05-13T00:49:43.751Z,4.40
2023-05-13T00:50:43.761Z,4.50
2023-05-13T00:51:43.744Z,4.60
2023-05-13T00:52:43.712Z,4.70
2023-05-13T00:53:43.723Z,4.50
2023-05-13T00:54:43.692Z,4.80
2023-05-13T00:55:43.700Z,4.50
2023-05-13T00:56:43.690Z,4.70
2023-05-13T00:57:43.662Z,4.60
2023-05-13T00:58:43.646Z,4.30
2023-05-13T00:59:43.647Z,4.40
2023-05-13T01:00:43.640Z,4.80
2023-05-13T01:01:43.709Z,4.80
2023-05-13T01:02:43.627Z,4.50
2023-05-13T01:03:43.589Z,4.50
2023-05-13T01:04:43.581Z,4.40
2023-05-13T01:05:43.607Z,4.60
2023-05-13T01:06:43.577Z,4.50
2023-05-13T01:07:43.554Z,4.40
2023-05-13T01:08:43.533Z,5.00
2023-05-13T01:09:43.535Z,5.00
2023-05-13T01:10:43.529Z,4.50
2023-05-13T01:11:43.501Z,5.00
2023-05-13T01:12:43.499Z,4.70
2023-05-13T01:13:43.575Z,5.00
2023-05-13T01:14:43.488Z,4.90
2023-05-13T01:15:43.458Z,4.90
2023-05-13T01:16:43.478Z,4.90
2023-05-13T01:17:43.474Z,4.60
2023-05-13T01:18:43.514Z,4.80
2023-05-13T01:19:43.425Z,4.90
2023-05-13T01:20:43.404Z,4.70
2023-05-13T01:21:43.388Z,4.80
2023-05-13T01:22:43.399Z,4.50
2023-05-13T01:23:43.393Z,4.90
2023-05-13T01:24:43.411Z,4.70
2023-05-13T01:25:43.344Z,5.00
2023-05-13T01:26:43.330Z,4.90
2023-05-13T01:27:43.323Z,4.90
2023-05-13T01:28:43.321Z,4.90
2023-05-13T01:29:43.296Z,5.00
2023-05-13T01:30:43.300Z,4.80
2023-05-13T01:31:43.381Z,4.80
2023-05-13T01:32:43.332Z,4.40
2023-05-13T01:33:43.273Z,4.80
2023-05-13T01:34:43.251Z,4.60
2023-05-13T01:35:43.240Z,5.00
2023-05-13T01:36:43.218Z,5.00
2023-05-13T01:37:43.212Z,4.80
2023-05-13T01:38:43.234Z,4.50
2023-05-13T01:39:43.186Z,5.50
2023-05-13T01:40:43.180Z,4.40
2023-05-13T01:41:43.209Z,5.10
2023-05-13T01:42:43.169Z,4.80
2023-05-13T01:43:43.256Z,5.00
2023-05-13T01:44:43.162Z,4.50
2023-05-13T01:45:43.121Z,4.70
2023-05-13T01:46:43.144Z,4.70
2023-05-13T01:47:43.123Z,4.70
2023-05-13T01:48:43.119Z,4.10
2023-05-13T01:49:43.082Z,4.60
2023-05-13T01:50:43.062Z,4.70
2023-05-13T01:51:43.052Z,4.60
2023-05-13T01:52:43.060Z,4.60
2023-05-13T01:53:43.026Z,5.30
2023-05-13T01:54:43.045Z,4.90
2023-05-13T01:55:43.005Z,4.90
2023-05-13T01:56:43.010Z,4.90
2023-05-13T01:57:43.008Z,4.80
2023-05-13T01:58:42.999Z,4.80
2023-05-13T01:59:42.965Z,4.90
2023-05-13T02:00:42.960Z,5.30
2023-05-13T02:01:42.988Z,5.10
2023-05-13T02:02:43.054Z,4.40
2023-05-13T02:03:43.063Z,4.80
2023-05-13T02:04:42.904Z,5.30
2023-05-13T02:05:42.896Z,4.70
2023-05-13T02:06:42.898Z,5.20
2023-05-13T02:07:42.872Z,5.00
2023-05-13T02:08:42.864Z,4.60
2023-05-13T02:09:42.862Z,5.30
2023-05-13T02:10:42.874Z,5.10
2023-05-13T02:11:42.841Z,4.70
2023-05-13T02:12:42.813Z,4.70
2023-05-13T02:13:42.817Z,4.90
2023-05-13T02:14:42.800Z,5.20
2023-05-13T02:15:42.796Z,5.00
2023-05-13T02:16:42.847Z,5.30
2023-05-13T02:17:42.811Z,5.30
2023-05-13T02:18:42.773Z,4.40
2023-05-13T02:19:42.746Z,4.70
2023-05-13T02:20:42.740Z,4.80
2023-05-13T02:21:42.720Z,5.20
2023-05-13T02:22:42.709Z,5.10
2023-05-13T02:23:42.693Z,4.80
2023-05-13T02:24:42.697Z,4.70
2023-05-13T02:25:42.696Z,5.10
2023-05-13T02:26:42.679Z,4.60
2023-05-13T02:27:42.662Z,4.90
2023-05-13T02:28:42.652Z,4.60
2023-05-13T02:29:42.671Z,4.60
2023-05-13T02:30:42.623Z,4.80
2023-05-13T02:31:42.647Z,4.60
2023-05-13T02:32:42.647Z,5.00
2023-05-13T02:33:42.587Z,5.20
2023-05-13T02:34:42.588Z,4.60
2023-05-13T02:35:42.562Z,5.00
2023-05-13T02:36:42.558Z,4.90
2023-05-13T02:37:42.547Z,5.20
2023-05-13T02:38:42.572Z,4.60
2023-05-13T02:39:42.543Z,5.30
2023-05-13T02:40:42.512Z,5.40
2023-05-13T02:41:42.495Z,5.10
2023-05-13T02:42:42.508Z,5.20
2023-05-13T02:43:42.596Z,5.00
2023-05-13T02:44:42.475Z,5.20
2023-05-13T02:45:42.507Z,4.80
2023-05-13T02:46:42.475Z,5.10
2023-05-13T02:47:42.452Z,5.70
2023-05-13T02:48:42.439Z,5.40
2023-05-13T02:49:42.417Z,5.20
2023-05-13T02:50:42.401Z,4.90
2023-05-13T02:51:42.384Z,5.10
2023-05-13T02:52:42.395Z,5.20
2023-05-13T02:53:42.386Z,5.30
2023-05-13T02:54:42.388Z,5.40
2023-05-13T02:55:42.351Z,5.10
2023-05-13T02:56:42.332Z,5.90
2023-05-13T02:57:42.342Z,5.40
2023-05-13T02:58:42.338Z,5.30
2023-05-13T02:59:42.302Z,5.60
2023-05-13T03:00:42.294Z,5.40
2023-05-13T03:01:42.345Z,5.90
2023-05-13T03:02:42.401Z,6.20
2023-05-13T03:03:42.335Z,5.20
2023-05-13T03:04:42.251Z,5.70
2023-05-13T03:05:42.238Z,5.20
2023-05-13T03:06:42.252Z,5.20
2023-05-13T03:07:42.210Z,5.70
2023-05-13T03:08:42.203Z,5.70
2023-05-13T03:09:42.189Z,5.80
2023-05-13T03:10:42.188Z,5.90
2023-05-13T03:11:42.183Z,5.40
2023-05-13T03:12:42.160Z,5.60
2023-05-13T03:13:42.149Z,5.80
2023-05-13T03:14:42.157Z,4.80
2023-05-13T03:15:44.239Z,5.50
2023-05-13T03:16:42.165Z,4.90
2023-05-13T03:17:42.157Z,4.90
2023-05-13T03:18:42.128Z,4.80
2023-05-13T03:19:42.084Z,5.00
2023-05-13T03:20:42.085Z,5.60
2023-05-13T03:21:42.080Z,4.90
2023-05-13T03:22:42.060Z,5.00
2023-05-13T03:23:42.039Z,4.90
2023-05-13T03:24:42.029Z,4.90
2023-05-13T03:25:42.045Z,5.10
2023-05-13T03:26:42.005Z,5.30
2023-05-13T03:27:41.989Z,5.30
2023-05-13T03:28:41.981Z,5.20
2023-05-13T03:29:41.964Z,5.10
2023-05-13T03:30:41.999Z,5.10
2023-05-13T03:31:42.010Z,5.00
2023-05-13T03:32:41.960Z,5.00
2023-05-13T03:33:41.924Z,5.30
2023-05-13T03:34:41.926Z,5.30
2023-05-13T03:35:41.917Z,4.80
2023-05-13T03:36:41.895Z,5.20
2023-05-13T03:37:41.893Z,5.00
2023-05-13T03:38:41.876Z,5.20
2023-05-13T03:39:41.890Z,5.20
2023-05-13T03:40:41.863Z,5.00
2023-05-13T03:41:41.854Z,4.90
2023-05-13T03:42:41.833Z,5.20
2023-05-13T03:43:41.833Z,5.30
2023-05-13T03:44:41.816Z,5.50
2023-05-13T03:45:41.799Z,5.00
2023-05-13T03:46:41.875Z,5.10
2023-05-13T03:47:41.817Z,5.30
2023-05-13T03:48:42.018Z,5.20
2023-05-13T03:49:41.751Z,5.10
2023-05-13T03:50:41.737Z,4.90
2023-05-13T03:51:41.748Z,5.50
2023-05-13T03:52:41.714Z,5.30
2023-05-13T03:53:41.715Z,5.60
2023-05-13T03:54:41.695Z,5.60
2023-05-13T03:55:41.678Z,5.30
2023-05-13T03:56:41.669Z,5.30
2023-05-13T03:57:41.680Z,5.30
2023-05-13T03:58:41.665Z,5.40
2023-05-13T03:59:41.638Z,5.30
2023-05-13T04:00:41.631Z,5.50
2023-05-13T04:01:41.700Z,5.90
2023-05-13T04:02:41.852Z,5.40
2023-05-13T04:03:41.605Z,5.60
2023-05-13T04:04:41.625Z,4.90
2023-05-13T04:05:41.574Z,4.60
2023-05-13T04:06:41.563Z,5.50
2023-05-13T04:07:41.841Z,5.30
2023-05-13T04:08:41.553Z,4.80
2023-05-13T04:09:41.529Z,5.10
2023-05-13T04:10:41.516Z,5.30
2023-05-13T04:11:41.503Z,5.60
2023-05-13T04:12:41.506Z,5.90
2023-05-13T04:13:41.482Z,5.10
2023-05-13T04:14:41.474Z,5.00
2023-05-13T04:15:41.465Z,5.60
2023-05-13T04:16:41.510Z,5.20
2023-05-13T04:17:41.487Z,5.10
2023-05-13T04:18:41.469Z,5.30
2023-05-13T04:19:41.420Z,5.40
2023-05-13T04:20:41.410Z,5.40
2023-05-13T04:21:41.403Z,5.00
2023-05-13T04:22:41.395Z,5.10
2023-05-13T04:23:41.376Z,5.30
2023-05-13T04:24:41.369Z,5.40
2023-05-13T04:25:41.351Z,5.20
2023-05-13T04:26:41.358Z,5.60
2023-05-13T04:27:41.342Z,5.10
2023-05-13T04:28:41.316Z,4.70
2023-05-13T04:29:41.304Z,5.00
2023-05-13T04:30:41.316Z,4.90
2023-05-13T04:31:41.373Z,4.90
2023-05-13T04:32:41.317Z,5.00
2023-05-13T04:33:41.270Z,5.20
2023-05-13T04:34:41.272Z,4.80
2023-05-13T04:35:41.278Z,5.40
2023-05-13T04:36:41.232Z,4.50
2023-05-13T04:37:41.226Z,4.80
2023-05-13T04:38:41.214Z,4.90
2023-05-13T04:39:41.192Z,5.10
2023-05-13T04:40:41.210Z,5.20
2023-05-13T04:41:41.177Z,4.80
2023-05-13T04:42:41.162Z,4.70
2023-05-13T04:43:41.150Z,4.90
2023-05-13T04:44:41.184Z,5.30
2023-05-13T04:45:41.147Z,5.10
2023-05-13T04:46:41.215Z,5.00
2023-05-13T04:47:41.131Z,4.80
2023-05-13T04:48:41.095Z,5.10
2023-05-13T04:49:41.094Z,5.10
2023-05-13T04:50:41.095Z,5.40
2023-05-13T04:51:41.065Z,5.40
2023-05-13T04:52:41.051Z,5.00
2023-05-13T04:53:41.041Z,5.00
2023-05-13T04:54:41.045Z,5.00
2023-05-13T04:55:41.028Z,4.90
2023-05-13T04:56:41.009Z,4.80
2023-05-13T04:57:41.000Z,5.00
2023-05-13T04:58:41.010Z,5.30
2023-05-13T04:59:40.998Z,5.20
2023-05-13T05:00:40.956Z,4.90
2023-05-13T05:01:41.052Z,5.40
2023-05-13T05:02:40.961Z,5.10
2023-05-13T05:03:40.950Z,5.50
2023-05-13T05:04:40.918Z,5.20
2023-05-13T05:05:40.904Z,5.50
2023-05-13T05:06:40.913Z,5.20
2023-05-13T05:07:40.883Z,5.40
2023-05-13T05:08:40.884Z,5.40
2023-05-13T05:09:40.856Z,5.30
2023-05-13T05:10:40.848Z,6.70
2023-05-13T05:11:40.838Z,6.60
2023-05-13T05:12:40.845Z,5.70
2023-05-13T05:13:40.842Z,6.30
2023-05-13T05:14:40.809Z,6.50
2023-05-13T05:15:40.788Z,6.60
2023-05-13T05:16:40.792Z,7.10
2023-05-13T05:17:40.924Z,6.90
2023-05-13T05:18:40.850Z,6.70
2023-05-13T05:19:40.761Z,6.70
2023-05-13T05:20:40.734Z,7.10
2023-05-13T05:21:40.752Z,7.00
2023-05-13T05:22:40.762Z,7.20
2023-05-13T05:23:40.706Z,7.20
2023-05-13T05:24:40.694Z,7.10
2023-05-13T05:25:40.703Z,6.80
2023-05-13T05:26:42.782Z,7.30
2023-05-13T05:27:40.676Z,7.20
2023-05-13T05:28:40.668Z,7.40
2023-05-13T05:29:40.636Z,6.60
2023-05-13T05:30:40.634Z,7.40
2023-05-13T05:31:40.701Z,7.90
2023-05-13T05:32:40.631Z,7.60
2023-05-13T05:33:40.589Z,7.10
2023-05-13T05:34:40.588Z,7.30
2023-05-13T05:35:40.586Z,7.70
2023-05-13T05:36:40.570Z,7.80
2023-05-13T05:37:40.558Z,8.30
2023-05-13T05:38:40.554Z,7.90
2023-05-13T05:39:40.546Z,7.90
2023-05-13T05:40:40.533Z,7.80
2023-05-13T05:41:40.506Z,7.90
2023-05-13T05:42:40.492Z,7.80
2023-05-13T05:43:40.497Z,8.00
2023-05-13T05:44:40.491Z,7.70
2023-05-13T05:45:40.516Z,7.90
2023-05-13T05:46:40.447Z,8.40
2023-05-13T05:47:40.454Z,7.80
2023-05-13T05:48:40.424Z,8.10
2023-05-13T05:49:40.450Z,7.90
2023-05-13T05:50:40.434Z,7.30
2023-05-13T05:51:40.415Z,7.60
2023-05-13T05:52:40.377Z,6.90
2023-05-13T05:53:40.380Z,6.20
2023-05-13T05:54:40.402Z,6.30
2023-05-13T05:55:40.346Z,5.70
2023-05-13T05:56:40.335Z,6.00
2023-05-13T05:57:40.338Z,6.30
2023-05-13T05:58:40.333Z,6.10
2023-05-13T05:59:40.376Z,6.10
2023-05-13T06:00:40.290Z,6.10
2023-05-13T06:01:40.288Z,6.10
2023-05-13T06:02:40.345Z,6.50
2023-05-13T06:03:40.372Z,6.00
2023-05-13T06:04:40.314Z,6.50
2023-05-13T06:05:40.237Z,6.10
2023-05-13T06:06:40.284Z,6.00
2023-05-13T06:07:40.212Z,6.60
2023-05-13T06:08:40.238Z,5.50
2023-05-13T06:09:40.190Z,6.10
2023-05-13T06:10:40.251Z,6.20
2023-05-13T06:11:40.169Z,5.80
2023-05-13T06:12:40.155Z,5.60
2023-05-13T06:13:40.187Z,6.20
2023-05-13T06:14:40.130Z,5.80
2023-05-13T06:15:40.135Z,5.20
2023-05-13T06:16:40.111Z,5.70
2023-05-13T06:17:40.169Z,6.30
2023-05-13T06:18:40.150Z,6.40
2023-05-13T06:19:40.084Z,6.00
2023-05-13T06:20:40.075Z,5.50
2023-05-13T06:21:40.056Z,5.10
2023-05-13T06:22:40.057Z,5.90
2023-05-13T06:23:40.038Z,5.50
2023-05-13T06:24:40.029Z,5.30
2023-05-13T06:25:40.009Z,5.70
2023-05-13T06:26:40.030Z,5.10
2023-05-13T06:27:40.005Z,5.30
2023-05-13T06:28:39.973Z,5.40
2023-05-13T06:29:39.974Z,5.80
2023-05-13T06:30:39.951Z,5.30
2023-05-13T06:31:39.998Z,5.20
2023-05-13T06:32:47.286Z,5.60
2023-05-13T06:33:40.926Z,5.50
2023-05-13T06:34:39.922Z,5.80
2023-05-13T06:35:39.907Z,5.60
2023-05-13T06:36:39.900Z,4.90
2023-05-13T06:37:39.880Z,5.20
2023-05-13T06:38:39.862Z,5.50
2023-05-13T06:39:39.855Z,4.90
2023-05-13T06:40:39.849Z,5.20
2023-05-13T06:41:39.858Z,4.90
2023-05-13T06:42:39.865Z,5.10
2023-05-13T06:43:39.810Z,5.00
2023-05-13T06:44:39.802Z,5.30
2023-05-13T06:45:39.856Z,5.70
2023-05-13T06:46:39.896Z,5.40
2023-05-13T06:47:39.818Z,5.20
2023-05-13T06:48:39.765Z,5.10
2023-05-13T06:49:39.743Z,5.40
2023-05-13T06:50:39.755Z,5.10
2023-05-13T06:51:39.718Z,4.50
2023-05-13T06:52:41.268Z,5.20
2023-05-13T06:53:39.698Z,5.10
2023-05-13T06:54:39.686Z,5.20
2023-05-13T06:55:39.693Z,4.80
2023-05-13T06:56:39.667Z,5.10
2023-05-13T06:57:43.480Z,4.80
2023-05-13T06:58:39.677Z,5.10
2023-05-13T06:59:39.646Z,4.80
2023-05-13T07:00:39.657Z,4.70
2023-05-13T07:01:39.642Z,5.10
2023-05-13T07:02:39.747Z,4.50
2023-05-13T07:03:39.596Z,5.00
2023-05-13T07:04:39.590Z,4.50
2023-05-13T07:05:39.572Z,4.80
2023-05-13T07:06:39.555Z,4.40
2023-05-13T07:07:39.540Z,4.70
2023-05-13T07:08:39.524Z,4.80
2023-05-13T07:09:39.546Z,4.60
2023-05-13T07:10:39.509Z,4.50
2023-05-13T07:11:39.505Z,5.00
2023-05-13T07:12:39.482Z,4.60
2023-05-13T07:13:40.077Z,4.30
2023-05-13T07:14:39.517Z,4.60
2023-05-13T07:15:39.451Z,4.40
2023-05-13T07:16:39.463Z,4.70
2023-05-13T07:17:39.545Z,4.60
2023-05-13T07:18:39.480Z,4.80
2023-05-13T07:19:39.419Z,4.80
2023-05-13T07:20:39.400Z,4.90
2023-05-13T07:21:39.419Z,4.10
2023-05-13T07:22:39.385Z,4.20
2023-05-13T07:23:39.394Z,4.30
2023-05-13T07:24:39.352Z,4.80
2023-05-13T07:25:39.378Z,4.40
2023-05-13T07:26:39.323Z,4.60
2023-05-13T07:27:39.334Z,4.20
2023-05-13T07:28:39.755Z,4.40
2023-05-13T07:29:39.331Z,4.50
2023-05-13T07:30:39.335Z,4.70
2023-05-13T07:31:39.279Z,4.30
2023-05-13T07:32:39.361Z,4.50
2023-05-13T07:33:39.259Z,4.50
2023-05-13T07:34:39.262Z,4.40
2023-05-13T07:35:39.234Z,4.80
2023-05-13T07:36:39.218Z,4.30
2023-05-13T07:37:39.225Z,4.70
2023-05-13T07:38:39.193Z,4.60
2023-05-13T07:39:39.183Z,4.40
2023-05-13T07:40:39.172Z,4.40
2023-05-13T07:41:39.175Z,4.90
2023-05-13T07:42:39.160Z,4.60
2023-05-13T07:43:39.150Z,4.40
2023-05-13T07:44:39.133Z,4.80
2023-05-13T07:45:39.140Z,5.10
2023-05-13T07:46:39.174Z,4.70
2023-05-13T07:47:39.145Z,4.20
2023-05-13T07:48:39.085Z,4.90
2023-05-13T07:49:39.093Z,4.60
2023-05-13T07:50:39.073Z,4.80
2023-05-13T07:51:39.069Z,4.70
2023-05-13T07:52:39.039Z,4.90
2023-05-13T07:53:39.031Z,4.90
2023-05-13T07:54:39.023Z,4.10
2023-05-13T07:55:39.025Z,4.60
2023-05-13T07:56:39.016Z,4.60
2023-05-13T07:57:38.993Z,4.30
2023-05-13T07:58:38.982Z,4.90
2023-05-13T07:59:38.972Z,5.10
2023-05-13T08:00:38.974Z,4.70
2023-05-13T08:01:38.945Z,4.80
2023-05-13T08:02:39.175Z,4.80
2023-05-13T08:03:39.085Z,5.10
2023-05-13T08:04:38.980Z,4.70
2023-05-13T08:05:38.914Z,4.90
2023-05-13T08:06:40.120Z,4.20
2023-05-13T08:07:38.884Z,4.80
2023-05-13T08:08:38.875Z,4.70
2023-05-13T08:09:38.894Z,4.30
2023-05-13T08:10:38.849Z,4.50
2023-05-13T08:11:38.827Z,4.50
2023-05-13T08:12:38.813Z,4.40
2023-05-13T08:13:38.816Z,4.50
2023-05-13T08:14:38.825Z,5.20
2023-05-13T08:15:38.787Z,4.50
2023-05-13T08:16:38.871Z,4.30
2023-05-13T08:17:38.842Z,4.80
2023-05-13T08:18:38.825Z,6.10
2023-05-13T08:19:38.903Z,4.10
2023-05-13T08:20:38.735Z,4.00
2023-05-13T08:21:38.716Z,4.60
2023-05-13T08:22:38.711Z,4.40
2023-05-13T08:23:45.449Z,4.00
2023-05-13T08:24:39.722Z,4.60
2023-05-13T08:25:38.689Z,4.70
2023-05-13T08:26:38.665Z,4.30
2023-05-13T08:27:38.656Z,4.80
2023-05-13T08:28:38.684Z,4.70
2023-05-13T08:29:38.640Z,5.00
2023-05-13T08:30:38.638Z,4.60
2023-05-13T08:31:38.746Z,4.50
2023-05-13T08:32:38.650Z,4.70
2023-05-13T08:33:38.612Z,4.50
2023-05-13T08:34:38.597Z,4.60
2023-05-13T08:35:38.572Z,4.40
2023-05-13T08:36:38.557Z,4.50
2023-05-13T08:37:38.584Z,4.20
2023-05-13T08:38:38.565Z,4.30
2023-05-13T08:39:38.525Z,4.30
2023-05-13T08:40:38.517Z,4.70
2023-05-13T08:41:38.507Z,4.20
2023-05-13T08:42:38.512Z,4.30
2023-05-13T08:43:38.524Z,4.30
2023-05-13T08:44:38.469Z,4.40
2023-05-13T08:45:38.474Z,4.60
2023-05-13T08:46:38.641Z,4.40
2023-05-13T08:47:38.521Z,3.90
2023-05-13T08:48:38.438Z,4.20
2023-05-13T08:49:38.425Z,4.30
2023-05-13T08:50:38.430Z,4.40
2023-05-13T08:51:38.419Z,4.40
2023-05-13T08:52:38.402Z,4.60
2023-05-13T08:53:38.380Z,4.30
2023-05-13T08:54:38.370Z,4.20
2023-05-13T08:55:38.357Z,4.10
2023-05-13T08:56:38.358Z,4.30
2023-05-13T08:57:38.386Z,4.10
2023-05-13T08:58:38.391Z,4.00
2023-05-13T08:59:38.321Z,4.10
2023-05-13T09:00:38.309Z,4.30
2023-05-13T09:01:38.361Z,4.00
2023-05-13T09:02:38.332Z,4.00
2023-05-13T09:03:38.271Z,4.20
2023-05-13T09:04:38.300Z,4.30
2023-05-13T09:05:39.195Z,4.20
2023-05-13T09:06:38.286Z,3.70
2023-05-13T09:07:38.223Z,4.60
2023-05-13T09:08:38.224Z,4.00
2023-05-13T09:09:38.212Z,3.90
2023-05-13T09:10:38.206Z,4.10
2023-05-13T09:11:38.183Z,3.90
2023-05-13T09:12:38.173Z,3.90
2023-05-13T09:13:38.164Z,4.10
2023-05-13T09:14:38.156Z,4.20
2023-05-13T09:15:38.192Z,4.40
2023-05-13T09:16:38.172Z,4.10
2023-05-13T09:17:38.150Z,4.50
2023-05-13T09:18:38.176Z,4.40
2023-05-13T09:19:38.202Z,4.10
2023-05-13T09:20:38.114Z,4.70
2023-05-13T09:21:38.104Z,4.10
2023-05-13T09:22:38.081Z,4.10
2023-05-13T09:23:38.057Z,3.80
2023-05-13T09:24:38.063Z,4.00
2023-05-13T09:25:38.046Z,3.70
2023-05-13T09:26:38.016Z,3.70
2023-05-13T09:27:38.013Z,3.70
2023-05-13T09:28:38.005Z,4.00
2023-05-13T09:29:38.000Z,3.70
2023-05-13T09:30:37.980Z,3.50
2023-05-13T09:31:38.029Z,3.90
2023-05-13T09:32:38.006Z,3.40
2023-05-13T09:33:37.949Z,3.40
2023-05-13T09:34:37.975Z,3.20
2023-05-13T09:35:37.928Z,3.30
2023-05-13T09:36:37.909Z,3.50
2023-05-13T09:37:37.902Z,3.60
2023-05-13T09:38:37.911Z,3.60
2023-05-13T09:39:37.922Z,3.90
2023-05-13T09:40:37.860Z,3.30
2023-05-13T09:41:37.847Z,3.50
2023-05-13T09:42:37.835Z,3.70
2023-05-13T09:43:37.842Z,3.30
2023-05-13T09:44:37.819Z,3.20
2023-05-13T09:45:37.821Z,3.30
2023-05-13T09:46:37.849Z,3.30
2023-05-13T09:47:37.797Z,4.10
2023-05-13T09:48:37.786Z,3.50
2023-05-13T09:49:37.768Z,3.70
2023-05-13T09:50:37.754Z,3.50
2023-05-13T09:51:37.738Z,3.30
2023-05-13T09:52:37.742Z,3.00
2023-05-13T09:53:37.740Z,3.40
2023-05-13T09:54:37.730Z,3.40
2023-05-13T09:55:37.709Z,3.40
2023-05-13T09:56:37.687Z,3.80
2023-05-13T09:57:37.695Z,3.60
2023-05-13T09:58:37.668Z,3.20
2023-05-13T09:59:47.730Z,3.40
2023-05-13T10:01:48.474Z,3.50
2023-05-13T10:02:48.429Z,3.20
2023-05-13T10:03:48.366Z,3.60
2023-05-13T10:04:48.347Z,3.80
2023-05-13T10:05:48.310Z,3.60
2023-05-13T10:06:48.305Z,3.10
2023-05-13T10:07:48.285Z,3.10
2023-05-13T10:08:48.276Z,3.30
2023-05-13T10:09:48.274Z,3.30
2023-05-13T10:10:48.290Z,3.00
2023-05-13T10:11:48.269Z,3.30
2023-05-13T10:12:48.234Z,3.20
2023-05-13T10:13:48.216Z,3.80
2023-05-13T10:14:48.201Z,3.20
2023-05-13T10:15:48.211Z,3.00
2023-05-13T10:16:48.243Z,3.10
2023-05-13T10:17:48.191Z,3.40
2023-05-13T10:18:48.198Z,3.40
2023-05-13T10:19:48.157Z,2.90
2023-05-13T10:20:48.162Z,3.00
2023-05-13T10:21:48.133Z,3.10
2023-05-13T10:22:48.115Z,3.10
2023-05-13T10:23:48.109Z,3.40
2023-05-13T10:24:48.098Z,3.30
2023-05-13T10:25:48.139Z,3.00
2023-05-13T10:26:48.075Z,2.80
2023-05-13T10:27:48.066Z,3.20
2023-05-13T10:28:48.056Z,2.90
2023-05-13T10:29:59.447Z,3.20
2023-05-13T10:30:48.072Z,3.10
2023-05-13T10:31:48.062Z,3.30
2023-05-13T10:32:48.033Z,3.20
2023-05-13T10:33:48.028Z,3.40
2023-05-13T10:34:48.004Z,3.30
2023-05-13T10:35:47.972Z,3.80
2023-05-13T10:36:48.015Z,3.50
2023-05-13T10:39:00.200Z,2.60
2023-05-13T10:40:00.334Z,3.40
2023-05-13T10:42:12.010Z,3.80
2023-05-13T10:45:31.503Z,4.10
2023-05-13T10:45:41.409Z,3.00
2023-05-13T10:46:47.752Z,3.50
2023-05-13T10:47:41.577Z,3.00
2023-05-13T10:48:41.892Z,3.40
2023-05-13T10:49:41.387Z,3.20
2023-05-13T10:50:41.352Z,3.40
2023-05-13T10:51:41.314Z,3.00
2023-05-13T10:52:41.340Z,2.80
2023-05-13T10:53:41.390Z,3.40
2023-05-13T10:54:41.317Z,3.20
2023-05-13T10:55:41.326Z,3.00
2023-05-13T10:56:41.258Z,2.90
2023-05-13T10:57:41.394Z,3.00
2023-05-13T10:58:41.330Z,3.20
2023-05-13T10:59:41.251Z,3.20
2023-05-13T11:00:41.251Z,2.90
2023-05-13T11:01:41.268Z,2.90
2023-05-13T11:02:41.338Z,3.20
2023-05-13T11:03:41.362Z,3.10
2023-05-13T11:04:41.198Z,3.00
2023-05-13T11:05:41.365Z,3.20
2023-05-13T11:06:41.214Z,3.10
2023-05-13T11:07:41.215Z,3.70
2023-05-13T11:08:41.152Z,3.20
2023-05-13T11:09:41.145Z,3.10
2023-05-13T11:10:41.150Z,3.20
2023-05-13T11:11:41.178Z,3.70
2023-05-13T11:12:41.223Z,3.00
2023-05-13T11:13:41.210Z,3.20
2023-05-13T11:14:41.102Z,2.90
2023-05-13T11:15:41.069Z,3.30
2023-05-13T11:16:41.300Z,3.30
2023-05-13T11:17:42.453Z,3.40
2023-05-13T11:18:41.175Z,3.30
2023-05-13T11:19:41.025Z,3.00
2023-05-13T11:20:51.543Z,3.10
2023-05-13T11:21:42.018Z,3.20
2023-05-13T11:22:41.021Z,3.00
2023-05-13T11:23:42.159Z,3.10
2023-05-13T11:24:40.961Z,3.00
2023-05-13T11:25:40.972Z,3.10
2023-05-13T11:26:40.953Z,3.10
2023-05-13T11:27:40.936Z,3.20
2023-05-13T11:28:40.914Z,2.90
2023-05-13T11:29:40.923Z,2.70
2023-05-13T11:30:40.915Z,2.80
2023-05-13T11:31:40.933Z,2.80
2023-05-13T11:32:40.913Z,2.40
2023-05-13T11:33:40.861Z,2.70
2023-05-13T11:34:40.856Z,2.70
2023-05-13T11:35:40.885Z,2.70
2023-05-13T11:36:40.836Z,2.70
2023-05-13T11:37:40.834Z,3.10
2023-05-13T11:38:40.818Z,2.70
2023-05-13T11:39:40.888Z,2.70
2023-05-13T11:40:40.810Z,3.20
2023-05-13T11:41:40.792Z,2.80
2023-05-13T11:42:40.775Z,2.70
2023-05-13T11:43:40.785Z,2.30
2023-05-13T11:44:40.752Z,2.60
2023-05-13T11:45:40.770Z,2.70
2023-05-13T11:46:40.747Z,2.90
2023-05-13T11:47:40.745Z,2.70
2023-05-13T11:48:40.701Z,2.60
2023-05-13T11:49:40.707Z,2.40
2023-05-13T11:50:40.679Z,2.70
2023-05-13T11:51:40.671Z,2.50
2023-05-13T11:52:40.659Z,3.00
2023-05-13T11:53:40.659Z,2.50
2023-05-13T11:54:40.645Z,2.30
2023-05-13T11:55:40.620Z,2.70
2023-05-13T11:56:40.615Z,2.70
2023-05-13T11:57:40.604Z,2.90
2023-05-13T11:58:40.608Z,2.60
2023-05-13T11:59:47.990Z,2.50
2023-05-13T12:00:41.571Z,2.60
2023-05-13T12:01:40.580Z,2.90
2023-05-13T12:02:41.075Z,2.70
2023-05-13T12:03:40.568Z,2.60
2023-05-13T12:04:40.553Z,2.70
2023-05-13T12:05:40.704Z,2.50
2023-05-13T12:06:40.510Z,2.80
2023-05-13T12:07:40.880Z,2.90
2023-05-13T12:08:40.499Z,2.50
2023-05-13T12:09:40.487Z,2.60
2023-05-13T12:10:40.464Z,2.50
2023-05-13T12:11:40.454Z,2.70
2023-05-13T12:12:40.471Z,2.80
2023-05-13T12:13:40.430Z,2.60
2023-05-13T12:14:40.419Z,2.70
2023-05-13T12:15:40.495Z,2.70
2023-05-13T12:16:40.406Z,2.70
2023-05-13T12:17:40.460Z,2.70
2023-05-13T12:18:40.413Z,2.70
2023-05-13T12:19:40.371Z,2.70
2023-05-13T12:20:40.357Z,2.50
2023-05-13T12:21:40.362Z,2.50
2023-05-13T12:22:40.355Z,2.60
2023-05-13T12:23:40.333Z,3.40
2023-05-13T12:24:40.316Z,2.90
2023-05-13T12:25:40.322Z,2.90
2023-05-13T12:26:40.309Z,2.90
2023-05-13T12:27:40.278Z,2.90
2023-05-13T12:28:40.273Z,3.00
2023-05-13T12:29:40.255Z,2.90
2023-05-13T12:30:40.256Z,2.80
2023-05-13T12:31:40.317Z,2.90
2023-05-13T12:32:40.303Z,2.70
2023-05-13T12:33:40.240Z,2.60
2023-05-13T12:34:40.213Z,2.70
2023-05-13T12:35:40.233Z,3.00
2023-05-13T12:36:40.317Z,2.70
2023-05-13T12:37:40.167Z,3.00
2023-05-13T12:38:40.158Z,3.10
2023-05-13T12:39:40.151Z,2.80
2023-05-13T12:40:40.159Z,3.20
2023-05-13T12:41:40.123Z,2.80
2023-05-13T12:42:40.126Z,2.70
2023-05-13T12:43:40.101Z,3.00
2023-05-13T12:44:40.094Z,3.30
2023-05-13T12:45:42.596Z,3.00
2023-05-13T12:46:40.146Z,2.90
2023-05-13T12:47:40.095Z,2.80
2023-05-13T12:48:40.063Z,2.80
2023-05-13T12:49:40.929Z,2.70
2023-05-13T12:50:40.040Z,2.90
2023-05-13T12:51:40.023Z,3.00
2023-05-13T12:52:40.005Z,2.80
2023-05-13T12:53:40.017Z,2.80
2023-05-13T12:54:39.998Z,2.70
2023-05-13T12:55:40.373Z,2.80
2023-05-13T12:56:39.961Z,2.60
2023-05-13T12:57:39.958Z,2.90
2023-05-13T12:58:39.945Z,2.70
2023-05-13T12:59:40.301Z,3.00
2023-05-13T13:00:40.034Z,2.70
2023-05-13T13:01:40.013Z,2.70
2023-05-13T13:02:40.006Z,3.10
2023-05-13T13:03:40.406Z,2.40
2023-05-13T13:04:39.999Z,3.00
2023-05-13T13:05:39.901Z,2.70
2023-05-13T13:06:39.858Z,2.70
2023-05-13T13:07:39.844Z,2.70
2023-05-13T13:08:39.859Z,2.70
2023-05-13T13:09:39.824Z,2.90
2023-05-13T13:10:39.812Z,2.70
2023-05-13T13:11:39.805Z,2.70
2023-05-13T13:12:39.790Z,2.90
2023-05-13T13:13:39.800Z,2.70
2023-05-13T13:14:39.789Z,3.00
2023-05-13T13:15:39.761Z,2.80
2023-05-13T13:16:39.780Z,2.70
2023-05-13T13:17:39.785Z,2.90
2023-05-13T13:18:39.796Z,2.60
2023-05-13T13:19:39.720Z,2.60
2023-05-13T13:20:39.700Z,2.50
2023-05-13T13:21:39.796Z,2.70
2023-05-13T13:22:39.694Z,2.40
2023-05-13T13:23:39.703Z,3.00